sensor_id;sensor_type;location;lat;lon;timestamp;P1;durP1;ratioP1;P2;durP2;ratioP2
11100;SDS011;5604;50.722;7.078;2023-06-26T00:01:55;5.60;;;5.10;;
11100;SDS011;5604;50.722;7.078;2023-06-26T00:04:24;6.43;;;5.70;;
11100;SDS011;5604;50.722;7.078;2023-06-26T00:06:52;5.63;;;5.13;;
11100;SDS011;5604;50.722;7.078;2023-06-26T00:09:20;5.50;;;5.00;;
11100;SDS011;5604;50.722;7.078;2023-06-26T00:11:48;8.13;;;5.30;;
11100;SDS011;5604;50.722;7.078;2023-06-26T00:14:17;6.00;;;5.50;;
11100;SDS011;5604;50.722;7.078;2023-06-26T00:16:47;6.43;;;5.33;;
11100;SDS011;5604;50.722;7.078;2023-06-26T00:19:16;5.83;;;5.30;;
11100;SDS011;5604;50.722;7.078;2023-06-26T00:21:44;6.40;;;5.80;;
11100;SDS011;5604;50.722;7.078;2023-06-26T00:24:14;6.43;;;5.83;;
11100;SDS011;5604;50.722;7.078;2023-06-26T00:26:42;6.20;;;5.70;;
11100;SDS011;5604;50.722;7.078;2023-06-26T00:29:11;6.60;;;5.90;;
11100;SDS011;5604;50.722;7.078;2023-06-26T00:31:40;6.47;;;5.57;;
11100;SDS011;5604;50.722;7.078;2023-06-26T00:34:08;6.30;;;5.63;;
11100;SDS011;5604;50.722;7.078;2023-06-26T00:36:37;5.97;;;5.37;;
11100;SDS011;5604;50.722;7.078;2023-06-26T00:39:05;6.03;;;5.47;;
11100;SDS011;5604;50.722;7.078;2023-06-26T00:41:34;6.10;;;5.60;;
11100;SDS011;5604;50.722;7.078;2023-06-26T00:44:03;6.30;;;5.60;;
11100;SDS011;5604;50.722;7.078;2023-06-26T00:46:31;6.50;;;5.90;;
11100;SDS011;5604;50.722;7.078;2023-06-26T00:49:01;6.23;;;5.73;;
11100;SDS011;5604;50.722;7.078;2023-06-26T00:51:30;5.90;;;5.33;;
11100;SDS011;5604;50.722;7.078;2023-06-26T00:53:59;6.07;;;5.47;;
11100;SDS011;5604;50.722;7.078;2023-06-26T00:56:27;6.10;;;5.50;;
11100;SDS011;5604;50.722;7.078;2023-06-26T00:58:56;6.20;;;5.60;;
11100;SDS011;5604;50.722;7.078;2023-06-26T01:01:25;6.23;;;5.43;;
11100;SDS011;5604;50.722;7.078;2023-06-26T01:03:53;5.97;;;5.47;;
11100;SDS011;5604;50.722;7.078;2023-06-26T01:06:26;6.77;;;5.60;;
11100;SDS011;5604;50.722;7.078;2023-06-26T01:08:58;6.00;;;5.43;;
11100;SDS011;5604;50.722;7.078;2023-06-26T01:11:27;7.70;;;5.70;;
11100;SDS011;5604;50.722;7.078;2023-06-26T01:13:55;6.60;;;5.73;;
11100;SDS011;5604;50.722;7.078;2023-06-26T01:16:24;6.47;;;5.87;;
11100;SDS011;5604;50.722;7.078;2023-06-26T01:18:52;6.90;;;5.60;;
11100;SDS011;5604;50.722;7.078;2023-06-26T01:21:20;6.00;;;5.50;;
11100;SDS011;5604;50.722;7.078;2023-06-26T01:23:54;8.10;;;5.83;;
11100;SDS011;5604;50.722;7.078;2023-06-26T01:26:28;5.63;;;5.13;;
11100;SDS011;5604;50.722;7.078;2023-06-26T01:28:58;6.17;;;5.57;;
11100;SDS011;5604;50.722;7.078;2023-06-26T01:31:27;6.07;;;5.57;;
11100;SDS011;5604;50.722;7.078;2023-06-26T01:33:57;6.33;;;5.80;;
11100;SDS011;5604;50.722;7.078;2023-06-26T01:36:26;6.40;;;5.80;;
11100;SDS011;5604;50.722;7.078;2023-06-26T01:38:55;5.80;;;5.30;;
11100;SDS011;5604;50.722;7.078;2023-06-26T01:41:23;6.20;;;5.60;;
11100;SDS011;5604;50.722;7.078;2023-06-26T01:43:57;6.10;;;5.60;;
11100;SDS011;5604;50.722;7.078;2023-06-26T01:46:34;5.87;;;5.30;;
11100;SDS011;5604;50.722;7.078;2023-06-26T01:49:06;6.23;;;5.63;;
11100;SDS011;5604;50.722;7.078;2023-06-26T01:51:42;7.27;;;6.03;;
11100;SDS011;5604;50.722;7.078;2023-06-26T01:54:18;6.47;;;5.87;;
11100;SDS011;5604;50.722;7.078;2023-06-26T01:56:48;6.00;;;5.50;;
11100;SDS011;5604;50.722;7.078;2023-06-26T01:59:19;6.33;;;5.73;;
11100;SDS011;5604;50.722;7.078;2023-06-26T02:01:48;5.73;;;5.23;;
11100;SDS011;5604;50.722;7.078;2023-06-26T02:04:16;5.90;;;5.40;;
11100;SDS011;5604;50.722;7.078;2023-06-26T02:06:45;5.80;;;5.30;;
11100;SDS011;5604;50.722;7.078;2023-06-26T02:09:13;6.57;;;5.87;;
11100;SDS011;5604;50.722;7.078;2023-06-26T02:11:43;6.17;;;5.57;;
11100;SDS011;5604;50.722;7.078;2023-06-26T02:14:11;6.47;;;5.67;;
11100;SDS011;5604;50.722;7.078;2023-06-26T02:16:40;6.53;;;5.93;;
11100;SDS011;5604;50.722;7.078;2023-06-26T02:19:08;5.90;;;5.33;;
11100;SDS011;5604;50.722;7.078;2023-06-26T02:21:36;6.63;;;6.00;;
11100;SDS011;5604;50.722;7.078;2023-06-26T02:24:05;6.00;;;5.50;;
11100;SDS011;5604;50.722;7.078;2023-06-26T02:26:33;6.47;;;5.87;;
11100;SDS011;5604;50.722;7.078;2023-06-26T02:29:01;5.93;;;5.43;;
11100;SDS011;5604;50.722;7.078;2023-06-26T02:31:31;6.40;;;5.80;;
11100;SDS011;5604;50.722;7.078;2023-06-26T02:34:01;5.77;;;5.27;;
11100;SDS011;5604;50.722;7.078;2023-06-26T02:36:29;6.57;;;5.80;;
11100;SDS011;5604;50.722;7.078;2023-06-26T02:38:57;6.43;;;5.43;;
11100;SDS011;5604;50.722;7.078;2023-06-26T02:41:25;7.93;;;5.90;;
11100;SDS011;5604;50.722;7.078;2023-06-26T02:43:53;6.00;;;5.37;;
11100;SDS011;5604;50.722;7.078;2023-06-26T02:46:21;6.43;;;5.60;;
11100;SDS011;5604;50.722;7.078;2023-06-26T02:48:49;5.67;;;5.17;;
11100;SDS011;5604;50.722;7.078;2023-06-26T02:51:20;6.10;;;5.50;;
11100;SDS011;5604;50.722;7.078;2023-06-26T02:53:48;6.67;;;6.07;;
11100;SDS011;5604;50.722;7.078;2023-06-26T02:56:16;6.00;;;5.40;;
11100;SDS011;5604;50.722;7.078;2023-06-26T02:58:44;5.80;;;5.30;;
11100;SDS011;5604;50.722;7.078;2023-06-26T03:01:12;6.30;;;5.70;;
11100;SDS011;5604;50.722;7.078;2023-06-26T03:03:43;6.70;;;5.90;;
11100;SDS011;5604;50.722;7.078;2023-06-26T03:06:16;6.40;;;5.80;;
11100;SDS011;5604;50.722;7.078;2023-06-26T03:08:46;6.70;;;6.07;;
11100;SDS011;5604;50.722;7.078;2023-06-26T03:11:14;5.97;;;5.47;;
11100;SDS011;5604;50.722;7.078;2023-06-26T03:13:43;5.80;;;5.30;;
11100;SDS011;5604;50.722;7.078;2023-06-26T03:16:12;6.20;;;5.60;;
11100;SDS011;5604;50.722;7.078;2023-06-26T03:18:40;5.87;;;5.37;;
11100;SDS011;5604;50.722;7.078;2023-06-26T03:21:08;6.20;;;5.60;;
11100;SDS011;5604;50.722;7.078;2023-06-26T03:23:39;6.20;;;5.60;;
11100;SDS011;5604;50.722;7.078;2023-06-26T03:26:08;6.87;;;6.10;;
11100;SDS011;5604;50.722;7.078;2023-06-26T03:28:37;6.97;;;6.37;;
11100;SDS011;5604;50.722;7.078;2023-06-26T03:31:07;6.17;;;5.63;;
11100;SDS011;5604;50.722;7.078;2023-06-26T03:33:36;6.57;;;5.60;;
11100;SDS011;5604;50.722;7.078;2023-06-26T03:36:05;6.47;;;5.90;;
11100;SDS011;5604;50.722;7.078;2023-06-26T03:38:33;8.40;;;5.83;;
11100;SDS011;5604;50.722;7.078;2023-06-26T03:41:02;7.40;;;5.80;;
11100;SDS011;5604;50.722;7.078;2023-06-26T03:43:31;6.30;;;5.70;;
11100;SDS011;5604;50.722;7.078;2023-06-26T03:46:11;7.60;;;5.87;;
11100;SDS011;5604;50.722;7.078;2023-06-26T03:48:39;6.60;;;5.73;;
11100;SDS011;5604;50.722;7.078;2023-06-26T03:51:08;6.80;;;5.80;;
11100;SDS011;5604;50.722;7.078;2023-06-26T03:53:37;6.53;;;5.93;;
11100;SDS011;5604;50.722;7.078;2023-06-26T03:56:05;6.40;;;5.80;;
11100;SDS011;5604;50.722;7.078;2023-06-26T03:58:34;6.40;;;5.80;;
11100;SDS011;5604;50.722;7.078;2023-06-26T04:01:03;6.50;;;5.90;;
11100;SDS011;5604;50.722;7.078;2023-06-26T04:03:31;6.40;;;5.80;;
11100;SDS011;5604;50.722;7.078;2023-06-26T04:06:00;6.43;;;5.43;;
11100;SDS011;5604;50.722;7.078;2023-06-26T04:08:28;6.50;;;5.87;;
11100;SDS011;5604;50.722;7.078;2023-06-26T04:10:56;6.50;;;5.90;;
11100;SDS011;5604;50.722;7.078;2023-06-26T04:13:25;7.17;;;6.23;;
11100;SDS011;5604;50.722;7.078;2023-06-26T04:15:54;6.10;;;5.50;;
11100;SDS011;5604;50.722;7.078;2023-06-26T04:18:22;7.33;;;5.83;;
11100;SDS011;5604;50.722;7.078;2023-06-26T04:21:07;6.30;;;5.70;;
11100;SDS011;5604;50.722;7.078;2023-06-26T04:23:36;7.17;;;6.10;;
11100;SDS011;5604;50.722;7.078;2023-06-26T04:26:04;8.80;;;6.60;;
11100;SDS011;5604;50.722;7.078;2023-06-26T04:28:32;6.30;;;5.80;;
11100;SDS011;5604;50.722;7.078;2023-06-26T04:31:02;8.20;;;6.40;;
11100;SDS011;5604;50.722;7.078;2023-06-26T04:33:30;8.20;;;5.73;;
11100;SDS011;5604;50.722;7.078;2023-06-26T04:35:59;7.37;;;5.97;;
11100;SDS011;5604;50.722;7.078;2023-06-26T04:38:29;6.70;;;5.63;;
11100;SDS011;5604;50.722;7.078;2023-06-26T04:40:58;6.70;;;6.03;;
11100;SDS011;5604;50.722;7.078;2023-06-26T04:43:26;6.50;;;5.90;;
11100;SDS011;5604;50.722;7.078;2023-06-26T04:45:54;7.07;;;6.03;;
11100;SDS011;5604;50.722;7.078;2023-06-26T04:48:23;6.83;;;5.87;;
11100;SDS011;5604;50.722;7.078;2023-06-26T04:50:54;6.43;;;5.77;;
11100;SDS011;5604;50.722;7.078;2023-06-26T04:53:22;6.60;;;5.97;;
11100;SDS011;5604;50.722;7.078;2023-06-26T04:55:51;5.90;;;5.30;;
11100;SDS011;5604;50.722;7.078;2023-06-26T04:58:19;7.53;;;5.93;;
11100;SDS011;5604;50.722;7.078;2023-06-26T05:00:47;6.57;;;5.60;;
11100;SDS011;5604;50.722;7.078;2023-06-26T05:03:16;7.00;;;5.53;;
11100;SDS011;5604;50.722;7.078;2023-06-26T05:05:46;6.30;;;5.70;;
11100;SDS011;5604;50.722;7.078;2023-06-26T05:08:15;7.03;;;5.70;;
11100;SDS011;5604;50.722;7.078;2023-06-26T05:10:44;6.53;;;5.37;;
11100;SDS011;5604;50.722;7.078;2023-06-26T05:13:12;6.10;;;5.40;;
11100;SDS011;5604;50.722;7.078;2023-06-26T05:15:44;6.50;;;5.43;;
11100;SDS011;5604;50.722;7.078;2023-06-26T05:18:12;5.80;;;5.30;;
11100;SDS011;5604;50.722;7.078;2023-06-26T05:20:40;8.80;;;5.30;;
11100;SDS011;5604;50.722;7.078;2023-06-26T05:23:10;6.10;;;5.23;;
11100;SDS011;5604;50.722;7.078;2023-06-26T05:25:39;6.03;;;5.07;;
11100;SDS011;5604;50.722;7.078;2023-06-26T05:28:08;5.67;;;5.17;;
11100;SDS011;5604;50.722;7.078;2023-06-26T05:30:39;5.33;;;4.83;;
11100;SDS011;5604;50.722;7.078;2023-06-26T05:33:08;5.10;;;4.60;;
11100;SDS011;5604;50.722;7.078;2023-06-26T05:35:39;6.83;;;4.93;;
11100;SDS011;5604;50.722;7.078;2023-06-26T05:38:07;5.20;;;4.80;;
11100;SDS011;5604;50.722;7.078;2023-06-26T05:40:39;5.23;;;4.73;;
11100;SDS011;5604;50.722;7.078;2023-06-26T05:43:08;8.13;;;4.70;;
11100;SDS011;5604;50.722;7.078;2023-06-26T05:45:37;6.73;;;4.50;;
11100;SDS011;5604;50.722;7.078;2023-06-26T05:48:05;5.67;;;4.53;;
11100;SDS011;5604;50.722;7.078;2023-06-26T05:50:33;4.60;;;4.20;;
11100;SDS011;5604;50.722;7.078;2023-06-26T05:53:02;5.70;;;4.53;;
11100;SDS011;5604;50.722;7.078;2023-06-26T05:55:33;4.93;;;4.53;;
11100;SDS011;5604;50.722;7.078;2023-06-26T05:58:03;7.63;;;4.90;;
11100;SDS011;5604;50.722;7.078;2023-06-26T06:00:34;5.10;;;4.60;;
11100;SDS011;5604;50.722;7.078;2023-06-26T06:03:03;4.87;;;4.47;;
11100;SDS011;5604;50.722;7.078;2023-06-26T06:05:31;4.90;;;4.27;;
11100;SDS011;5604;50.722;7.078;2023-06-26T06:07:59;4.50;;;4.10;;
11100;SDS011;5604;50.722;7.078;2023-06-26T06:10:27;6.50;;;4.50;;
11100;SDS011;5604;50.722;7.078;2023-06-26T06:12:56;8.57;;;4.27;;
11100;SDS011;5604;50.722;7.078;2023-06-26T06:15:24;5.03;;;4.40;;
11100;SDS011;5604;50.722;7.078;2023-06-26T06:17:56;4.67;;;4.17;;
11100;SDS011;5604;50.722;7.078;2023-06-26T06:20:24;5.93;;;3.63;;
11100;SDS011;5604;50.722;7.078;2023-06-26T06:22:52;7.87;;;3.93;;
11100;SDS011;5604;50.722;7.078;2023-06-26T06:25:20;7.47;;;4.53;;
11100;SDS011;5604;50.722;7.078;2023-06-26T06:27:48;4.87;;;3.90;;
11100;SDS011;5604;50.722;7.078;2023-06-26T06:30:18;8.67;;;4.07;;
11100;SDS011;5604;50.722;7.078;2023-06-26T06:33:06;5.53;;;3.50;;
11100;SDS011;5604;50.722;7.078;2023-06-26T06:35:34;6.27;;;3.60;;
11100;SDS011;5604;50.722;7.078;2023-06-26T06:38:02;6.43;;;3.90;;
11100;SDS011;5604;50.722;7.078;2023-06-26T06:40:30;8.87;;;4.00;;
11100;SDS011;5604;50.722;7.078;2023-06-26T06:42:58;8.53;;;4.03;;
11100;SDS011;5604;50.722;7.078;2023-06-26T06:45:28;5.27;;;4.13;;
11100;SDS011;5604;50.722;7.078;2023-06-26T06:47:56;6.40;;;4.10;;
11100;SDS011;5604;50.722;7.078;2023-06-26T06:50:24;7.00;;;4.00;;
11100;SDS011;5604;50.722;7.078;2023-06-26T06:52:52;7.77;;;4.13;;
11100;SDS011;5604;50.722;7.078;2023-06-26T06:55:20;7.27;;;3.97;;
11100;SDS011;5604;50.722;7.078;2023-06-26T06:57:48;8.97;;;4.00;;
11100;SDS011;5604;50.722;7.078;2023-06-26T07:00:16;6.77;;;4.00;;
11100;SDS011;5604;50.722;7.078;2023-06-26T07:02:46;5.73;;;4.40;;
11100;SDS011;5604;50.722;7.078;2023-06-26T07:05:15;5.93;;;3.77;;
11100;SDS011;5604;50.722;7.078;2023-06-26T07:07:44;5.97;;;3.50;;
11100;SDS011;5604;50.722;7.078;2023-06-26T07:10:12;4.67;;;3.80;;
11100;SDS011;5604;50.722;7.078;2023-06-26T07:12:41;5.80;;;4.23;;
11100;SDS011;5604;50.722;7.078;2023-06-26T07:15:10;7.93;;;4.60;;
11100;SDS011;5604;50.722;7.078;2023-06-26T07:17:38;6.97;;;4.27;;
11100;SDS011;5604;50.722;7.078;2023-06-26T07:20:08;10.47;;;4.33;;
11100;SDS011;5604;50.722;7.078;2023-06-26T07:22:42;6.00;;;3.93;;
11100;SDS011;5604;50.722;7.078;2023-06-26T07:25:11;5.90;;;4.30;;
11100;SDS011;5604;50.722;7.078;2023-06-26T07:27:40;5.37;;;3.87;;
11100;SDS011;5604;50.722;7.078;2023-06-26T07:30:09;7.47;;;4.43;;
11100;SDS011;5604;50.722;7.078;2023-06-26T07:32:38;8.40;;;4.20;;
11100;SDS011;5604;50.722;7.078;2023-06-26T07:35:08;5.30;;;4.30;;
11100;SDS011;5604;50.722;7.078;2023-06-26T07:37:36;9.13;;;4.40;;
11100;SDS011;5604;50.722;7.078;2023-06-26T07:40:05;8.33;;;4.00;;
11100;SDS011;5604;50.722;7.078;2023-06-26T07:42:33;5.60;;;4.47;;
11100;SDS011;5604;50.722;7.078;2023-06-26T07:45:02;6.80;;;4.30;;
11100;SDS011;5604;50.722;7.078;2023-06-26T07:47:36;6.87;;;4.10;;
11100;SDS011;5604;50.722;7.078;2023-06-26T07:50:04;5.87;;;3.80;;
11100;SDS011;5604;50.722;7.078;2023-06-26T07:52:34;5.47;;;4.40;;
11100;SDS011;5604;50.722;7.078;2023-06-26T07:55:02;6.70;;;4.80;;
11100;SDS011;5604;50.722;7.078;2023-06-26T07:57:31;7.17;;;4.10;;
11100;SDS011;5604;50.722;7.078;2023-06-26T07:59:59;6.70;;;4.50;;
11100;SDS011;5604;50.722;7.078;2023-06-26T08:02:28;7.33;;;4.87;;
11100;SDS011;5604;50.722;7.078;2023-06-26T08:04:56;7.43;;;4.50;;
11100;SDS011;5604;50.722;7.078;2023-06-26T08:07:24;7.10;;;4.00;;
11100;SDS011;5604;50.722;7.078;2023-06-26T08:09:54;8.93;;;4.33;;
11100;SDS011;5604;50.722;7.078;2023-06-26T08:12:22;9.63;;;4.67;;
11100;SDS011;5604;50.722;7.078;2023-06-26T08:14:50;7.70;;;5.10;;
11100;SDS011;5604;50.722;7.078;2023-06-26T08:17:18;6.67;;;4.43;;
11100;SDS011;5604;50.722;7.078;2023-06-26T08:19:46;8.57;;;5.20;;
11100;SDS011;5604;50.722;7.078;2023-06-26T08:22:14;7.23;;;4.13;;
11100;SDS011;5604;50.722;7.078;2023-06-26T08:24:42;5.73;;;4.33;;
11100;SDS011;5604;50.722;7.078;2023-06-26T08:27:12;8.50;;;4.50;;
11100;SDS011;5604;50.722;7.078;2023-06-26T08:29:40;7.50;;;4.50;;
11100;SDS011;5604;50.722;7.078;2023-06-26T08:32:08;10.33;;;4.30;;
11100;SDS011;5604;50.722;7.078;2023-06-26T08:34:36;7.83;;;4.33;;
11100;SDS011;5604;50.722;7.078;2023-06-26T08:37:04;9.40;;;4.10;;
11100;SDS011;5604;50.722;7.078;2023-06-26T08:39:35;9.13;;;4.47;;
11100;SDS011;5604;50.722;7.078;2023-06-26T08:42:06;6.87;;;4.03;;
11100;SDS011;5604;50.722;7.078;2023-06-26T08:44:36;9.70;;;4.13;;
11100;SDS011;5604;50.722;7.078;2023-06-26T08:47:19;7.23;;;3.67;;
11100;SDS011;5604;50.722;7.078;2023-06-26T08:49:51;8.13;;;3.87;;
11100;SDS011;5604;50.722;7.078;2023-06-26T08:52:23;6.37;;;3.63;;
11100;SDS011;5604;50.722;7.078;2023-06-26T08:54:57;7.47;;;3.83;;
11100;SDS011;5604;50.722;7.078;2023-06-26T08:57:26;8.37;;;3.73;;
11100;SDS011;5604;50.722;7.078;2023-06-26T08:59:55;4.93;;;3.40;;
11100;SDS011;5604;50.722;7.078;2023-06-26T09:02:23;8.63;;;3.80;;
11100;SDS011;5604;50.722;7.078;2023-06-26T09:04:52;5.47;;;3.30;;
11100;SDS011;5604;50.722;7.078;2023-06-26T09:07:20;4.67;;;3.70;;
11100;SDS011;5604;50.722;7.078;2023-06-26T09:09:48;4.87;;;3.57;;
11100;SDS011;5604;50.722;7.078;2023-06-26T09:12:16;5.43;;;3.30;;
11100;SDS011;5604;50.722;7.078;2023-06-26T09:14:44;9.80;;;3.93;;
11100;SDS011;5604;50.722;7.078;2023-06-26T09:17:14;5.13;;;3.50;;
11100;SDS011;5604;50.722;7.078;2023-06-26T09:19:45;10.00;;;4.27;;
11100;SDS011;5604;50.722;7.078;2023-06-26T09:22:13;5.93;;;3.77;;
11100;SDS011;5604;50.722;7.078;2023-06-26T09:24:42;8.17;;;3.60;;
11100;SDS011;5604;50.722;7.078;2023-06-26T09:27:11;7.07;;;3.60;;
11100;SDS011;5604;50.722;7.078;2023-06-26T09:29:39;7.43;;;3.53;;
11100;SDS011;5604;50.722;7.078;2023-06-26T09:32:07;5.03;;;3.03;;
11100;SDS011;5604;50.722;7.078;2023-06-26T09:34:37;3.33;;;2.73;;
11100;SDS011;5604;50.722;7.078;2023-06-26T09:37:11;3.73;;;2.77;;
11100;SDS011;5604;50.722;7.078;2023-06-26T09:39:39;6.10;;;2.80;;
11100;SDS011;5604;50.722;7.078;2023-06-26T09:42:07;5.10;;;2.90;;
11100;SDS011;5604;50.722;7.078;2023-06-26T09:44:36;6.87;;;2.90;;
11100;SDS011;5604;50.722;7.078;2023-06-26T09:47:04;4.43;;;2.83;;
11100;SDS011;5604;50.722;7.078;2023-06-26T09:49:32;6.20;;;2.90;;
11100;SDS011;5604;50.722;7.078;2023-06-26T09:52:02;9.73;;;2.90;;
11100;SDS011;5604;50.722;7.078;2023-06-26T09:54:30;3.90;;;2.60;;
11100;SDS011;5604;50.722;7.078;2023-06-26T09:57:06;6.27;;;2.50;;
11100;SDS011;5604;50.722;7.078;2023-06-26T09:59:35;6.90;;;2.80;;
11100;SDS011;5604;50.722;7.078;2023-06-26T10:02:03;6.40;;;2.67;;
11100;SDS011;5604;50.722;7.078;2023-06-26T10:04:32;4.17;;;2.73;;
11100;SDS011;5604;50.722;7.078;2023-06-26T10:07:04;6.73;;;3.30;;
11100;SDS011;5604;50.722;7.078;2023-06-26T10:09:33;5.33;;;2.50;;
11100;SDS011;5604;50.722;7.078;2023-06-26T10:12:03;4.57;;;2.47;;
11100;SDS011;5604;50.722;7.078;2023-06-26T10:14:35;8.03;;;2.63;;
11100;SDS011;5604;50.722;7.078;2023-06-26T10:17:06;5.70;;;2.60;;
11100;SDS011;5604;50.722;7.078;2023-06-26T10:19:38;4.67;;;2.70;;
11100;SDS011;5604;50.722;7.078;2023-06-26T10:22:09;3.33;;;2.40;;
11100;SDS011;5604;50.722;7.078;2023-06-26T10:24:38;5.90;;;2.60;;
11100;SDS011;5604;50.722;7.078;2023-06-26T10:27:08;5.10;;;2.30;;
11100;SDS011;5604;50.722;7.078;2023-06-26T10:29:42;8.87;;;2.87;;
11100;SDS011;5604;50.722;7.078;2023-06-26T10:32:12;7.27;;;2.60;;
11100;SDS011;5604;50.722;7.078;2023-06-26T10:34:41;7.13;;;2.20;;
11100;SDS011;5604;50.722;7.078;2023-06-26T10:37:11;6.63;;;2.53;;
11100;SDS011;5604;50.722;7.078;2023-06-26T10:39:45;3.90;;;1.90;;
11100;SDS011;5604;50.722;7.078;2023-06-26T10:42:15;6.47;;;2.53;;
11100;SDS011;5604;50.722;7.078;2023-06-26T10:44:44;7.77;;;2.70;;
11100;SDS011;5604;50.722;7.078;2023-06-26T10:47:28;5.30;;;1.87;;
11100;SDS011;5604;50.722;7.078;2023-06-26T10:50:06;5.60;;;2.27;;
11100;SDS011;5604;50.722;7.078;2023-06-26T10:55:48;6.20;;;2.30;;
11100;SDS011;5604;50.722;7.078;2023-06-26T10:58:33;6.67;;;2.10;;
11100;SDS011;5604;50.722;7.078;2023-06-26T11:01:17;3.23;;;1.53;;
11100;SDS011;5604;50.722;7.078;2023-06-26T11:04:00;4.90;;;2.00;;
11100;SDS011;5604;50.722;7.078;2023-06-26T11:06:30;6.27;;;2.00;;
11100;SDS011;5604;50.722;7.078;2023-06-26T11:09:07;5.03;;;2.17;;
11100;SDS011;5604;50.722;7.078;2023-06-26T11:11:57;6.93;;;2.23;;
11100;SDS011;5604;50.722;7.078;2023-06-26T11:14:29;6.33;;;1.90;;
11100;SDS011;5604;50.722;7.078;2023-06-26T11:16:58;6.20;;;1.87;;
11100;SDS011;5604;50.722;7.078;2023-06-26T11:19:27;4.73;;;1.73;;
11100;SDS011;5604;50.722;7.078;2023-06-26T11:21:59;5.90;;;2.17;;
11100;SDS011;5604;50.722;7.078;2023-06-26T11:24:30;4.20;;;1.70;;
11100;SDS011;5604;50.722;7.078;2023-06-26T11:27:00;5.43;;;1.80;;
11100;SDS011;5604;50.722;7.078;2023-06-26T11:29:30;4.17;;;1.93;;
11100;SDS011;5604;50.722;7.078;2023-06-26T11:32:01;3.40;;;1.90;;
11100;SDS011;5604;50.722;7.078;2023-06-26T11:34:32;3.97;;;1.87;;
11100;SDS011;5604;50.722;7.078;2023-06-26T11:37:01;4.93;;;2.37;;
11100;SDS011;5604;50.722;7.078;2023-06-26T11:39:31;4.30;;;2.03;;
11100;SDS011;5604;50.722;7.078;2023-06-26T11:41:59;6.27;;;1.73;;
11100;SDS011;5604;50.722;7.078;2023-06-26T11:44:29;4.40;;;2.00;;
11100;SDS011;5604;50.722;7.078;2023-06-26T11:46:58;3.67;;;2.00;;
11100;SDS011;5604;50.722;7.078;2023-06-26T11:49:26;5.50;;;2.10;;
11100;SDS011;5604;50.722;7.078;2023-06-26T11:51:56;5.50;;;2.00;;
11100;SDS011;5604;50.722;7.078;2023-06-26T11:54:24;4.00;;;1.80;;
11100;SDS011;5604;50.722;7.078;2023-06-26T11:56:55;3.60;;;2.00;;
11100;SDS011;5604;50.722;7.078;2023-06-26T11:59:32;5.23;;;1.90;;
11100;SDS011;5604;50.722;7.078;2023-06-26T12:02:04;4.63;;;2.20;;
11100;SDS011;5604;50.722;7.078;2023-06-26T12:04:33;6.63;;;2.50;;
11100;SDS011;5604;50.722;7.078;2023-06-26T12:07:03;4.23;;;2.00;;
11100;SDS011;5604;50.722;7.078;2023-06-26T12:09:34;5.23;;;2.60;;
11100;SDS011;5604;50.722;7.078;2023-06-26T12:12:06;5.73;;;1.70;;
11100;SDS011;5604;50.722;7.078;2023-06-26T12:14:44;3.90;;;1.90;;
11100;SDS011;5604;50.722;7.078;2023-06-26T12:17:13;3.43;;;2.03;;
11100;SDS011;5604;50.722;7.078;2023-06-26T12:19:43;4.27;;;1.67;;
11100;SDS011;5604;50.722;7.078;2023-06-26T12:22:11;6.70;;;2.00;;
11100;SDS011;5604;50.722;7.078;2023-06-26T12:24:40;7.00;;;2.07;;
11100;SDS011;5604;50.722;7.078;2023-06-26T12:27:11;4.03;;;2.20;;
11100;SDS011;5604;50.722;7.078;2023-06-26T12:29:42;6.20;;;1.90;;
11100;SDS011;5604;50.722;7.078;2023-06-26T12:32:14;4.80;;;1.70;;
11100;SDS011;5604;50.722;7.078;2023-06-26T12:34:46;6.30;;;2.20;;
11100;SDS011;5604;50.722;7.078;2023-06-26T12:37:15;6.03;;;2.23;;
11100;SDS011;5604;50.722;7.078;2023-06-26T12:39:48;5.57;;;1.67;;
11100;SDS011;5604;50.722;7.078;2023-06-26T12:42:18;4.17;;;1.67;;
11100;SDS011;5604;50.722;7.078;2023-06-26T12:44:47;3.83;;;1.87;;
11100;SDS011;5604;50.722;7.078;2023-06-26T12:47:16;2.57;;;1.83;;
11100;SDS011;5604;50.722;7.078;2023-06-26T12:49:44;5.00;;;1.80;;
11100;SDS011;5604;50.722;7.078;2023-06-26T12:52:14;3.63;;;1.60;;
11100;SDS011;5604;50.722;7.078;2023-06-26T12:54:43;4.43;;;1.80;;
11100;SDS011;5604;50.722;7.078;2023-06-26T12:57:13;5.97;;;2.30;;
11100;SDS011;5604;50.722;7.078;2023-06-26T12:59:43;4.83;;;1.80;;
11100;SDS011;5604;50.722;7.078;2023-06-26T13:02:11;3.53;;;1.60;;
11100;SDS011;5604;50.722;7.078;2023-06-26T13:04:40;4.73;;;1.83;;
11100;SDS011;5604;50.722;7.078;2023-06-26T13:07:08;4.87;;;2.40;;
11100;SDS011;5604;50.722;7.078;2023-06-26T13:09:36;5.80;;;2.60;;
11100;SDS011;5604;50.722;7.078;2023-06-26T13:12:05;4.10;;;2.20;;
11100;SDS011;5604;50.722;7.078;2023-06-26T13:14:35;6.83;;;1.77;;
11100;SDS011;5604;50.722;7.078;2023-06-26T13:17:06;3.60;;;1.93;;
11100;SDS011;5604;50.722;7.078;2023-06-26T13:19:35;3.27;;;1.73;;
11100;SDS011;5604;50.722;7.078;2023-06-26T13:22:04;4.13;;;1.70;;
11100;SDS011;5604;50.722;7.078;2023-06-26T13:24:35;4.23;;;1.73;;
11100;SDS011;5604;50.722;7.078;2023-06-26T13:27:03;8.77;;;2.20;;
11100;SDS011;5604;50.722;7.078;2023-06-26T13:29:32;4.50;;;2.43;;
11100;SDS011;5604;50.722;7.078;2023-06-26T13:32:00;5.60;;;2.40;;
11100;SDS011;5604;50.722;7.078;2023-06-26T13:34:29;6.80;;;2.37;;
11100;SDS011;5604;50.722;7.078;2023-06-26T13:36:58;3.87;;;2.03;;
11100;SDS011;5604;50.722;7.078;2023-06-26T13:39:27;3.80;;;1.47;;
11100;SDS011;5604;50.722;7.078;2023-06-26T13:41:55;4.97;;;1.77;;
11100;SDS011;5604;50.722;7.078;2023-06-26T13:44:23;5.60;;;1.70;;
11100;SDS011;5604;50.722;7.078;2023-06-26T13:47:07;3.93;;;1.70;;
11100;SDS011;5604;50.722;7.078;2023-06-26T13:49:37;3.57;;;1.90;;
11100;SDS011;5604;50.722;7.078;2023-06-26T13:52:06;4.30;;;1.77;;
11100;SDS011;5604;50.722;7.078;2023-06-26T13:54:35;2.70;;;1.53;;
11100;SDS011;5604;50.722;7.078;2023-06-26T13:57:06;5.37;;;1.77;;
11100;SDS011;5604;50.722;7.078;2023-06-26T13:59:36;4.83;;;1.87;;
11100;SDS011;5604;50.722;7.078;2023-06-26T14:02:06;4.70;;;1.67;;
11100;SDS011;5604;50.722;7.078;2023-06-26T14:04:35;3.13;;;1.60;;
11100;SDS011;5604;50.722;7.078;2023-06-26T14:07:05;7.33;;;2.70;;
11100;SDS011;5604;50.722;7.078;2023-06-26T14:09:34;5.43;;;1.83;;
11100;SDS011;5604;50.722;7.078;2023-06-26T14:12:03;4.30;;;1.57;;
11100;SDS011;5604;50.722;7.078;2023-06-26T14:14:32;4.80;;;1.67;;
11100;SDS011;5604;50.722;7.078;2023-06-26T14:17:00;3.37;;;1.53;;
11100;SDS011;5604;50.722;7.078;2023-06-26T14:19:29;3.20;;;1.50;;
11100;SDS011;5604;50.722;7.078;2023-06-26T14:21:57;3.57;;;1.67;;
11100;SDS011;5604;50.722;7.078;2023-06-26T14:24:27;3.63;;;1.70;;
11100;SDS011;5604;50.722;7.078;2023-06-26T14:26:55;5.07;;;1.67;;
11100;SDS011;5604;50.722;7.078;2023-06-26T14:29:23;5.93;;;1.77;;
11100;SDS011;5604;50.722;7.078;2023-06-26T14:31:51;4.13;;;1.87;;
11100;SDS011;5604;50.722;7.078;2023-06-26T14:34:22;5.70;;;1.73;;
11100;SDS011;5604;50.722;7.078;2023-06-26T14:36:50;3.37;;;1.47;;
11100;SDS011;5604;50.722;7.078;2023-06-26T14:39:19;4.73;;;1.80;;
11100;SDS011;5604;50.722;7.078;2023-06-26T14:41:49;6.37;;;1.70;;
11100;SDS011;5604;50.722;7.078;2023-06-26T14:44:17;6.13;;;1.80;;
11100;SDS011;5604;50.722;7.078;2023-06-26T14:46:46;3.63;;;1.70;;
11100;SDS011;5604;50.722;7.078;2023-06-26T14:49:14;4.67;;;1.70;;
11100;SDS011;5604;50.722;7.078;2023-06-26T14:51:42;4.53;;;1.70;;
11100;SDS011;5604;50.722;7.078;2023-06-26T14:54:10;4.67;;;1.73;;
11100;SDS011;5604;50.722;7.078;2023-06-26T14:56:38;2.43;;;1.30;;
11100;SDS011;5604;50.722;7.078;2023-06-26T14:59:08;5.73;;;1.60;;
11100;SDS011;5604;50.722;7.078;2023-06-26T15:01:37;5.37;;;1.80;;
11100;SDS011;5604;50.722;7.078;2023-06-26T15:04:05;3.10;;;1.60;;
11100;SDS011;5604;50.722;7.078;2023-06-26T15:06:34;1.63;;;1.40;;
11100;SDS011;5604;50.722;7.078;2023-06-26T15:09:02;4.43;;;1.30;;
11100;SDS011;5604;50.722;7.078;2023-06-26T15:11:30;6.10;;;2.03;;
11100;SDS011;5604;50.722;7.078;2023-06-26T15:13:58;5.70;;;1.80;;
11100;SDS011;5604;50.722;7.078;2023-06-26T15:16:27;6.10;;;1.70;;
11100;SDS011;5604;50.722;7.078;2023-06-26T15:18:56;3.70;;;1.57;;